sensor_id;sensor_type;location;lat;lon;timestamp;P1;durP1;ratioP1;P2;durP2;ratioP2
49758;SDS011;70329;45.524;10.194;2023-07-13T00:01:46;2.78;;;1.30;;
49758;SDS011;70329;45.524;10.194;2023-07-13T00:04:15;3.22;;;1.40;;
49758;SDS011;70329;45.524;10.194;2023-07-13T00:06:41;6.10;;;1.30;;
49758;SDS011;70329;45.524;10.194;2023-07-13T00:09:09;3.38;;;1.33;;
49758;SDS011;70329;45.524;10.194;2023-07-13T00:11:37;5.22;;;1.13;;
49758;SDS011;70329;45.524;10.194;2023-07-13T00:14:03;6.30;;;1.60;;
49758;SDS011;70329;45.524;10.194;2023-07-13T00:16:28;3.55;;;1.65;;
49758;SDS011;70329;45.524;10.194;2023-07-13T00:18:54;4.32;;;1.70;;
49758;SDS011;70329;45.524;10.194;2023-07-13T00:21:19;4.57;;;2.27;;
49758;SDS011;70329;45.524;10.194;2023-07-13T00:23:44;8.77;;;2.58;;
49758;SDS011;70329;45.524;10.194;2023-07-13T00:26:10;7.40;;;2.00;;
49758;SDS011;70329;45.524;10.194;2023-07-13T00:28:37;4.35;;;2.10;;
49758;SDS011;70329;45.524;10.194;2023-07-13T00:31:04;5.18;;;2.40;;
49758;SDS011;70329;45.524;10.194;2023-07-13T00:33:30;7.00;;;2.22;;
49758;SDS011;70329;45.524;10.194;2023-07-13T00:35:55;4.90;;;2.00;;
49758;SDS011;70329;45.524;10.194;2023-07-13T00:38:22;5.50;;;2.10;;
49758;SDS011;70329;45.524;10.194;2023-07-13T00:40:47;10.57;;;2.97;;
49758;SDS011;70329;45.524;10.194;2023-07-13T00:43:15;7.00;;;2.67;;
49758;SDS011;70329;45.524;10.194;2023-07-13T00:48:08;4.87;;;2.30;;
49758;SDS011;70329;45.524;10.194;2023-07-13T00:52:59;4.03;;;2.17;;
49758;SDS011;70329;45.524;10.194;2023-07-13T00:55:25;8.10;;;2.30;;
49758;SDS011;70329;45.524;10.194;2023-07-13T00:57:52;10.23;;;2.28;;
49758;SDS011;70329;45.524;10.194;2023-07-13T01:00:17;6.40;;;2.37;;
49758;SDS011;70329;45.524;10.194;2023-07-13T01:02:45;5.53;;;2.38;;
49758;SDS011;70329;45.524;10.194;2023-07-13T01:05:12;14.20;;;3.03;;
49758;SDS011;70329;45.524;10.194;2023-07-13T01:07:42;7.75;;;3.03;;
49758;SDS011;70329;45.524;10.194;2023-07-13T01:10:09;7.07;;;3.38;;
49758;SDS011;70329;45.524;10.194;2023-07-13T01:12:36;8.93;;;3.63;;
49758;SDS011;70329;45.524;10.194;2023-07-13T01:15:02;11.63;;;4.10;;
49758;SDS011;70329;45.524;10.194;2023-07-13T01:17:29;10.98;;;4.13;;
49758;SDS011;70329;45.524;10.194;2023-07-13T01:19:56;9.95;;;4.00;;
49758;SDS011;70329;45.524;10.194;2023-07-13T01:22:21;8.65;;;3.60;;
49758;SDS011;70329;45.524;10.194;2023-07-13T01:24:52;13.07;;;4.00;;
49758;SDS011;70329;45.524;10.194;2023-07-13T01:27:24;9.27;;;3.13;;
49758;SDS011;70329;45.524;10.194;2023-07-13T01:29:51;7.18;;;3.38;;
49758;SDS011;70329;45.524;10.194;2023-07-13T01:32:22;5.65;;;3.05;;
49758;SDS011;70329;45.524;10.194;2023-07-13T01:34:49;6.35;;;3.30;;
49758;SDS011;70329;45.524;10.194;2023-07-13T01:37:15;9.85;;;3.38;;
49758;SDS011;70329;45.524;10.194;2023-07-13T01:39:41;6.00;;;3.08;;
49758;SDS011;70329;45.524;10.194;2023-07-13T01:42:07;8.20;;;3.03;;
49758;SDS011;70329;45.524;10.194;2023-07-13T01:44:33;7.57;;;2.97;;
49758;SDS011;70329;45.524;10.194;2023-07-13T01:46:58;9.00;;;3.60;;
49758;SDS011;70329;45.524;10.194;2023-07-13T01:49:24;7.20;;;3.65;;
49758;SDS011;70329;45.524;10.194;2023-07-13T01:51:49;8.73;;;3.65;;
49758;SDS011;70329;45.524;10.194;2023-07-13T01:54:15;6.47;;;3.67;;
49758;SDS011;70329;45.524;10.194;2023-07-13T01:56:40;5.90;;;3.17;;
49758;SDS011;70329;45.524;10.194;2023-07-13T01:59:06;9.23;;;3.90;;
49758;SDS011;70329;45.524;10.194;2023-07-13T02:01:32;13.68;;;3.95;;
49758;SDS011;70329;45.524;10.194;2023-07-13T02:03:57;8.52;;;3.40;;
49758;SDS011;70329;45.524;10.194;2023-07-13T02:06:23;5.97;;;3.53;;
49758;SDS011;70329;45.524;10.194;2023-07-13T02:08:48;9.10;;;3.80;;
49758;SDS011;70329;45.524;10.194;2023-07-13T02:11:14;11.00;;;4.38;;
49758;SDS011;70329;45.524;10.194;2023-07-13T02:13:39;11.43;;;3.87;;
49758;SDS011;70329;45.524;10.194;2023-07-13T02:16:05;9.65;;;4.00;;
49758;SDS011;70329;45.524;10.194;2023-07-13T02:18:31;8.75;;;4.13;;
49758;SDS011;70329;45.524;10.194;2023-07-13T02:20:57;8.43;;;4.05;;
49758;SDS011;70329;45.524;10.194;2023-07-13T02:23:22;9.18;;;4.32;;
49758;SDS011;70329;45.524;10.194;2023-07-13T02:25:47;6.77;;;3.90;;
49758;SDS011;70329;45.524;10.194;2023-07-13T02:28:13;9.73;;;4.20;;
49758;SDS011;70329;45.524;10.194;2023-07-13T02:30:38;12.60;;;4.40;;
49758;SDS011;70329;45.524;10.194;2023-07-13T02:33:04;12.77;;;4.90;;
49758;SDS011;70329;45.524;10.194;2023-07-13T02:37:55;11.73;;;4.75;;
49758;SDS011;70329;45.524;10.194;2023-07-13T02:40:20;9.60;;;5.30;;
49758;SDS011;70329;45.524;10.194;2023-07-13T02:42:46;11.97;;;5.20;;
49758;SDS011;70329;45.524;10.194;2023-07-13T02:45:11;13.07;;;5.45;;
49758;SDS011;70329;45.524;10.194;2023-07-13T02:47:39;11.10;;;5.43;;
49758;SDS011;70329;45.524;10.194;2023-07-13T02:50:06;10.32;;;5.35;;
49758;SDS011;70329;45.524;10.194;2023-07-13T02:52:32;8.70;;;5.00;;
49758;SDS011;70329;45.524;10.194;2023-07-13T02:54:57;13.55;;;5.28;;
49758;SDS011;70329;45.524;10.194;2023-07-13T02:57:23;7.97;;;5.25;;
49758;SDS011;70329;45.524;10.194;2023-07-13T02:59:48;8.68;;;5.55;;
49758;SDS011;70329;45.524;10.194;2023-07-13T03:02:14;11.07;;;6.07;;
49758;SDS011;70329;45.524;10.194;2023-07-13T03:04:40;11.18;;;6.43;;
49758;SDS011;70329;45.524;10.194;2023-07-13T03:07:06;12.55;;;5.63;;
49758;SDS011;70329;45.524;10.194;2023-07-13T03:09:32;9.73;;;5.65;;
49758;SDS011;70329;45.524;10.194;2023-07-13T03:11:58;13.35;;;5.97;;
49758;SDS011;70329;45.524;10.194;2023-07-13T03:14:24;10.85;;;5.93;;
49758;SDS011;70329;45.524;10.194;2023-07-13T03:16:49;13.45;;;5.90;;
49758;SDS011;70329;45.524;10.194;2023-07-13T03:19:15;12.48;;;5.32;;
49758;SDS011;70329;45.524;10.194;2023-07-13T03:21:40;10.43;;;5.30;;
49758;SDS011;70329;45.524;10.194;2023-07-13T03:24:06;10.40;;;4.93;;
49758;SDS011;70329;45.524;10.194;2023-07-13T03:26:32;12.38;;;4.80;;
49758;SDS011;70329;45.524;10.194;2023-07-13T03:28:57;11.18;;;4.97;;
49758;SDS011;70329;45.524;10.194;2023-07-13T03:31:24;10.98;;;5.50;;
49758;SDS011;70329;45.524;10.194;2023-07-13T03:33:53;8.98;;;5.32;;
49758;SDS011;70329;45.524;10.194;2023-07-13T03:36:20;10.23;;;5.03;;
49758;SDS011;70329;45.524;10.194;2023-07-13T03:38:55;8.05;;;3.65;;
49758;SDS011;70329;45.524;10.194;2023-07-13T03:41:22;5.15;;;2.72;;
49758;SDS011;70329;45.524;10.194;2023-07-13T03:43:48;9.20;;;2.78;;
49758;SDS011;70329;45.524;10.194;2023-07-13T03:46:14;7.13;;;2.55;;
49758;SDS011;70329;45.524;10.194;2023-07-13T03:48:41;5.22;;;2.55;;
49758;SDS011;70329;45.524;10.194;2023-07-13T03:51:09;5.75;;;2.30;;
49758;SDS011;70329;45.524;10.194;2023-07-13T03:56:05;7.40;;;2.58;;
49758;SDS011;70329;45.524;10.194;2023-07-13T04:00:58;5.68;;;2.65;;
49758;SDS011;70329;45.524;10.194;2023-07-13T04:03:24;4.55;;;2.17;;
49758;SDS011;70329;45.524;10.194;2023-07-13T04:05:52;9.85;;;2.33;;
49758;SDS011;70329;45.524;10.194;2023-07-13T04:10:44;9.53;;;2.70;;
49758;SDS011;70329;45.524;10.194;2023-07-13T04:13:09;7.75;;;2.50;;
49758;SDS011;70329;45.524;10.194;2023-07-13T04:15:35;7.20;;;2.30;;
49758;SDS011;70329;45.524;10.194;2023-07-13T04:18:00;7.00;;;2.35;;
49758;SDS011;70329;45.524;10.194;2023-07-13T04:20:26;7.37;;;2.30;;
49758;SDS011;70329;45.524;10.194;2023-07-13T04:22:51;5.15;;;2.00;;
49758;SDS011;70329;45.524;10.194;2023-07-13T04:25:18;5.25;;;2.50;;
49758;SDS011;70329;45.524;10.194;2023-07-13T04:27:44;5.32;;;2.40;;
49758;SDS011;70329;45.524;10.194;2023-07-13T04:30:09;7.47;;;3.10;;
49758;SDS011;70329;45.524;10.194;2023-07-13T04:32:35;6.55;;;2.65;;
49758;SDS011;70329;45.524;10.194;2023-07-13T04:35:00;6.97;;;3.17;;
49758;SDS011;70329;45.524;10.194;2023-07-13T04:37:26;7.53;;;2.97;;
49758;SDS011;70329;45.524;10.194;2023-07-13T04:39:52;6.82;;;2.67;;
49758;SDS011;70329;45.524;10.194;2023-07-13T04:42:17;6.85;;;3.47;;
49758;SDS011;70329;45.524;10.194;2023-07-13T04:44:50;7.88;;;3.70;;
49758;SDS011;70329;45.524;10.194;2023-07-13T04:47:16;14.15;;;4.70;;
49758;SDS011;70329;45.524;10.194;2023-07-13T04:49:42;10.30;;;4.90;;
49758;SDS011;70329;45.524;10.194;2023-07-13T04:52:07;11.73;;;5.17;;
49758;SDS011;70329;45.524;10.194;2023-07-13T04:54:33;11.25;;;4.90;;
49758;SDS011;70329;45.524;10.194;2023-07-13T04:56:59;7.22;;;4.35;;
49758;SDS011;70329;45.524;10.194;2023-07-13T04:59:25;12.73;;;5.05;;
49758;SDS011;70329;45.524;10.194;2023-07-13T05:01:50;15.85;;;4.72;;
49758;SDS011;70329;45.524;10.194;2023-07-13T05:04:16;15.30;;;4.75;;
49758;SDS011;70329;45.524;10.194;2023-07-13T05:06:42;12.75;;;5.60;;
49758;SDS011;70329;45.524;10.194;2023-07-13T05:09:07;11.60;;;4.15;;
49758;SDS011;70329;45.524;10.194;2023-07-13T05:11:33;9.02;;;4.07;;
49758;SDS011;70329;45.524;10.194;2023-07-13T05:13:58;14.68;;;4.50;;
49758;SDS011;70329;45.524;10.194;2023-07-13T05:16:24;16.13;;;4.85;;
49758;SDS011;70329;45.524;10.194;2023-07-13T05:18:49;11.38;;;4.47;;
49758;SDS011;70329;45.524;10.194;2023-07-13T05:21:14;12.93;;;4.17;;
49758;SDS011;70329;45.524;10.194;2023-07-13T05:23:40;16.42;;;4.63;;
49758;SDS011;70329;45.524;10.194;2023-07-13T05:26:09;12.48;;;4.30;;
49758;SDS011;70329;45.524;10.194;2023-07-13T05:28:35;10.40;;;4.13;;
49758;SDS011;70329;45.524;10.194;2023-07-13T05:33:27;14.50;;;4.03;;
49758;SDS011;70329;45.524;10.194;2023-07-13T05:35:52;11.18;;;4.38;;
49758;SDS011;70329;45.524;10.194;2023-07-13T05:38:18;11.32;;;4.60;;
49758;SDS011;70329;45.524;10.194;2023-07-13T05:40:43;9.93;;;4.05;;
49758;SDS011;70329;45.524;10.194;2023-07-13T05:45:35;12.77;;;4.97;;
49758;SDS011;70329;45.524;10.194;2023-07-13T05:48:00;18.13;;;5.28;;
49758;SDS011;70329;45.524;10.194;2023-07-13T05:50:26;12.52;;;4.63;;
49758;SDS011;70329;45.524;10.194;2023-07-13T05:52:52;16.02;;;5.32;;
49758;SDS011;70329;45.524;10.194;2023-07-13T05:55:17;13.18;;;4.70;;
49758;SDS011;70329;45.524;10.194;2023-07-13T05:57:43;10.30;;;5.28;;
49758;SDS011;70329;45.524;10.194;2023-07-13T06:00:09;13.35;;;5.47;;
49758;SDS011;70329;45.524;10.194;2023-07-13T06:02:35;20.02;;;5.40;;
49758;SDS011;70329;45.524;10.194;2023-07-13T06:05:00;11.93;;;5.10;;
49758;SDS011;70329;45.524;10.194;2023-07-13T06:07:26;14.73;;;4.93;;
49758;SDS011;70329;45.524;10.194;2023-07-13T06:09:51;13.60;;;4.82;;
49758;SDS011;70329;45.524;10.194;2023-07-13T06:12:16;10.80;;;4.40;;
49758;SDS011;70329;45.524;10.194;2023-07-13T06:17:07;10.98;;;4.30;;
49758;SDS011;70329;45.524;10.194;2023-07-13T06:19:33;10.00;;;4.05;;
49758;SDS011;70329;45.524;10.194;2023-07-13T06:24:24;12.00;;;4.03;;
49758;SDS011;70329;45.524;10.194;2023-07-13T06:26:50;14.15;;;4.53;;
49758;SDS011;70329;45.524;10.194;2023-07-13T06:29:15;8.95;;;3.95;;
49758;SDS011;70329;45.524;10.194;2023-07-13T06:31:41;18.30;;;5.25;;
49758;SDS011;70329;45.524;10.194;2023-07-13T06:36:32;15.88;;;4.50;;
49758;SDS011;70329;45.524;10.194;2023-07-13T06:38:57;13.02;;;4.55;;
49758;SDS011;70329;45.524;10.194;2023-07-13T06:41:23;10.05;;;3.70;;
49758;SDS011;70329;45.524;10.194;2023-07-13T06:43:51;7.63;;;3.13;;
49758;SDS011;70329;45.524;10.194;2023-07-13T06:46:16;8.13;;;3.17;;
49758;SDS011;70329;45.524;10.194;2023-07-13T06:48:42;7.70;;;3.67;;
49758;SDS011;70329;45.524;10.194;2023-07-13T06:53:33;7.53;;;2.92;;
49758;SDS011;70329;45.524;10.194;2023-07-13T06:55:58;9.05;;;2.90;;
49758;SDS011;70329;45.524;10.194;2023-07-13T06:58:24;10.57;;;2.88;;
49758;SDS011;70329;45.524;10.194;2023-07-13T07:00:52;12.40;;;2.40;;
49758;SDS011;70329;45.524;10.194;2023-07-13T07:03:17;8.05;;;2.80;;
49758;SDS011;70329;45.524;10.194;2023-07-13T07:05:43;10.10;;;3.13;;
49758;SDS011;70329;45.524;10.194;2023-07-13T07:08:09;8.23;;;3.40;;
49758;SDS011;70329;45.524;10.194;2023-07-13T07:10:34;11.63;;;3.15;;
49758;SDS011;70329;45.524;10.194;2023-07-13T07:15:26;13.65;;;3.00;;
49758;SDS011;70329;45.524;10.194;2023-07-13T07:20:17;6.97;;;2.92;;
49758;SDS011;70329;45.524;10.194;2023-07-13T07:25:08;5.07;;;2.17;;
49758;SDS011;70329;45.524;10.194;2023-07-13T07:29:58;6.10;;;2.47;;
49758;SDS011;70329;45.524;10.194;2023-07-13T07:32:24;6.65;;;2.60;;
49758;SDS011;70329;45.524;10.194;2023-07-13T07:37:15;5.83;;;2.03;;
49758;SDS011;70329;45.524;10.194;2023-07-13T07:42:06;7.73;;;2.20;;
49758;SDS011;70329;45.524;10.194;2023-07-13T07:46:57;4.72;;;2.00;;
49758;SDS011;70329;45.524;10.194;2023-07-13T07:51:48;5.88;;;1.85;;
49758;SDS011;70329;45.524;10.194;2023-07-13T07:56:39;7.07;;;2.05;;
49758;SDS011;70329;45.524;10.194;2023-07-13T08:01:30;6.85;;;2.30;;
49758;SDS011;70329;45.524;10.194;2023-07-13T08:06:21;5.50;;;1.75;;
49758;SDS011;70329;45.524;10.194;2023-07-13T08:11:12;7.63;;;2.22;;
49758;SDS011;70329;45.524;10.194;2023-07-13T08:16:06;6.15;;;2.40;;
49758;SDS011;70329;45.524;10.194;2023-07-13T08:18:31;6.38;;;2.28;;
49758;SDS011;70329;45.524;10.194;2023-07-13T08:23:23;3.63;;;2.00;;
49758;SDS011;70329;45.524;10.194;2023-07-13T08:25:50;5.88;;;2.03;;
49758;SDS011;70329;45.524;10.194;2023-07-13T08:28:17;8.40;;;2.20;;
49758;SDS011;70329;45.524;10.194;2023-07-13T08:30:44;5.78;;;1.92;;
49758;SDS011;70329;45.524;10.194;2023-07-13T08:33:13;5.95;;;2.38;;
49758;SDS011;70329;45.524;10.194;2023-07-13T08:38:05;9.00;;;2.30;;
49758;SDS011;70329;45.524;10.194;2023-07-13T08:42:57;4.77;;;2.40;;
49758;SDS011;70329;45.524;10.194;2023-07-13T08:45:34;6.55;;;2.40;;
49758;SDS011;70329;45.524;10.194;2023-07-13T08:50:40;10.18;;;2.50;;
49758;SDS011;70329;45.524;10.194;2023-07-13T08:53:14;6.25;;;2.83;;
49758;SDS011;70329;45.524;10.194;2023-07-13T08:55:41;5.38;;;2.70;;
49758;SDS011;70329;45.524;10.194;2023-07-13T08:58:12;5.40;;;2.30;;
49758;SDS011;70329;45.524;10.194;2023-07-13T09:00:53;8.85;;;2.30;;
49758;SDS011;70329;45.524;10.194;2023-07-13T09:03:29;9.25;;;2.80;;
49758;SDS011;70329;45.524;10.194;2023-07-13T09:06:01;12.50;;;2.25;;
49758;SDS011;70329;45.524;10.194;2023-07-13T09:08:42;6.60;;;2.58;;
49758;SDS011;70329;45.524;10.194;2023-07-13T09:11:18;6.18;;;2.10;;
49758;SDS011;70329;45.524;10.194;2023-07-13T09:19:18;8.23;;;2.15;;
49758;SDS011;70329;45.524;10.194;2023-07-13T09:21:48;10.15;;;2.03;;
49758;SDS011;70329;45.524;10.194;2023-07-13T09:26:45;7.90;;;1.88;;
49758;SDS011;70329;45.524;10.194;2023-07-13T09:29:31;10.25;;;2.53;;
49758;SDS011;70329;45.524;10.194;2023-07-13T09:32:10;12.18;;;2.90;;
49758;SDS011;70329;45.524;10.194;2023-07-13T09:34:39;6.50;;;2.33;;
49758;SDS011;70329;45.524;10.194;2023-07-13T09:37:05;6.15;;;2.88;;
49758;SDS011;70329;45.524;10.194;2023-07-13T09:44:36;9.50;;;2.60;;
49758;SDS011;70329;45.524;10.194;2023-07-13T09:47:18;9.27;;;2.90;;
49758;SDS011;70329;45.524;10.194;2023-07-13T09:49:46;8.88;;;3.03;;
49758;SDS011;70329;45.524;10.194;2023-07-13T09:52:12;7.25;;;2.80;;
49758;SDS011;70329;45.524;10.194;2023-07-13T09:54:43;10.63;;;3.20;;
49758;SDS011;70329;45.524;10.194;2023-07-13T09:57:17;9.85;;;3.10;;
49758;SDS011;70329;45.524;10.194;2023-07-13T09:59:56;11.10;;;3.38;;
49758;SDS011;70329;45.524;10.194;2023-07-13T10:05:06;12.00;;;3.28;;
49758;SDS011;70329;45.524;10.194;2023-07-13T10:07:47;5.53;;;2.67;;
49758;SDS011;70329;45.524;10.194;2023-07-13T10:10:17;9.23;;;2.97;;
49758;SDS011;70329;45.524;10.194;2023-07-13T10:12:45;5.35;;;2.63;;
49758;SDS011;70329;45.524;10.194;2023-07-13T10:15:16;8.25;;;2.90;;
49758;SDS011;70329;45.524;10.194;2023-07-13T10:17:46;7.53;;;3.03;;
49758;SDS011;70329;45.524;10.194;2023-07-13T10:20:12;11.27;;;2.92;;
49758;SDS011;70329;45.524;10.194;2023-07-13T10:25:14;12.05;;;3.38;;
49758;SDS011;70329;45.524;10.194;2023-07-13T10:27:52;14.43;;;3.50;;
49758;SDS011;70329;45.524;10.194;2023-07-13T10:30:25;11.82;;;3.63;;
49758;SDS011;70329;45.524;10.194;2023-07-13T10:32:57;9.00;;;3.45;;
49758;SDS011;70329;45.524;10.194;2023-07-13T10:35:23;8.35;;;3.42;;
49758;SDS011;70329;45.524;10.194;2023-07-13T10:37:57;6.15;;;2.95;;
49758;SDS011;70329;45.524;10.194;2023-07-13T10:40:48;7.65;;;3.60;;
49758;SDS011;70329;45.524;10.194;2023-07-13T10:43:31;5.93;;;3.15;;
49758;SDS011;70329;45.524;10.194;2023-07-13T10:46:02;8.40;;;3.78;;
49758;SDS011;70329;45.524;10.194;2023-07-13T10:48:28;14.95;;;3.47;;
49758;SDS011;70329;45.524;10.194;2023-07-13T10:51:00;10.18;;;3.75;;
49758;SDS011;70329;45.524;10.194;2023-07-13T10:53:36;13.95;;;3.72;;
49758;SDS011;70329;45.524;10.194;2023-07-13T10:56:05;11.52;;;3.60;;
49758;SDS011;70329;45.524;10.194;2023-07-13T10:58:44;9.43;;;3.38;;
49758;SDS011;70329;45.524;10.194;2023-07-13T11:08:56;9.00;;;3.60;;
49758;SDS011;70329;45.524;10.194;2023-07-13T11:18:46;8.20;;;3.05;;
49758;SDS011;70329;45.524;10.194;2023-07-13T11:21:17;9.40;;;3.22;;
49758;SDS011;70329;45.524;10.194;2023-07-13T11:23:45;9.07;;;3.42;;
49758;SDS011;70329;45.524;10.194;2023-07-13T11:31:42;10.18;;;3.20;;
49758;SDS011;70329;45.524;10.194;2023-07-13T11:34:15;15.38;;;3.30;;
49758;SDS011;70329;45.524;10.194;2023-07-13T11:36:46;6.82;;;3.35;;
49758;SDS011;70329;45.524;10.194;2023-07-13T11:41:46;12.65;;;3.40;;
49758;SDS011;70329;45.524;10.194;2023-07-13T11:44:17;10.63;;;2.88;;
49758;SDS011;70329;45.524;10.194;2023-07-13T11:46:46;6.85;;;3.00;;
49758;SDS011;70329;45.524;10.194;2023-07-13T11:49:21;6.90;;;3.00;;
49758;SDS011;70329;45.524;10.194;2023-07-13T11:51:49;6.35;;;2.88;;
49758;SDS011;70329;45.524;10.194;2023-07-13T11:54:41;6.85;;;2.38;;
49758;SDS011;70329;45.524;10.194;2023-07-13T11:57:26;8.38;;;2.40;;
49758;SDS011;70329;45.524;10.194;2023-07-13T11:59:56;5.75;;;1.90;;
49758;SDS011;70329;45.524;10.194;2023-07-13T12:02:33;6.47;;;2.30;;
49758;SDS011;70329;45.524;10.194;2023-07-13T12:05:01;7.95;;;2.33;;
49758;SDS011;70329;45.524;10.194;2023-07-13T12:07:29;11.23;;;2.45;;
49758;SDS011;70329;45.524;10.194;2023-07-13T12:10:03;8.50;;;2.55;;
49758;SDS011;70329;45.524;10.194;2023-07-13T12:12:53;5.45;;;2.30;;
49758;SDS011;70329;45.524;10.194;2023-07-13T12:15:21;7.38;;;2.40;;
49758;SDS011;70329;45.524;10.194;2023-07-13T12:17:48;6.28;;;2.13;;
49758;SDS011;70329;45.524;10.194;2023-07-13T12:20:35;6.15;;;2.50;;
49758;SDS011;70329;45.524;10.194;2023-07-13T12:23:04;9.45;;;2.63;;
49758;SDS011;70329;45.524;10.194;2023-07-13T12:25:31;5.53;;;2.70;;
49758;SDS011;70329;45.524;10.194;2023-07-13T12:27:56;7.70;;;2.60;;
49758;SDS011;70329;45.524;10.194;2023-07-13T12:30:26;7.10;;;2.47;;
49758;SDS011;70329;45.524;10.194;2023-07-13T12:32:58;8.40;;;2.10;;
49758;SDS011;70329;45.524;10.194;2023-07-13T12:35:26;7.68;;;2.30;;
49758;SDS011;70329;45.524;10.194;2023-07-13T12:37:55;7.10;;;2.60;;
49758;SDS011;70329;45.524;10.194;2023-07-13T12:40:25;6.38;;;2.20;;
49758;SDS011;70329;45.524;10.194;2023-07-13T12:43:01;4.30;;;2.50;;
49758;SDS011;70329;45.524;10.194;2023-07-13T12:45:31;8.68;;;2.58;;
49758;SDS011;70329;45.524;10.194;2023-07-13T12:47:58;6.13;;;2.33;;
49758;SDS011;70329;45.524;10.194;2023-07-13T12:50:40;4.88;;;2.30;;
49758;SDS011;70329;45.524;10.194;2023-07-13T12:53:11;5.70;;;2.00;;
49758;SDS011;70329;45.524;10.194;2023-07-13T12:55:43;7.40;;;3.00;;
49758;SDS011;70329;45.524;10.194;2023-07-13T13:01:01;7.63;;;2.40;;
49758;SDS011;70329;45.524;10.194;2023-07-13T13:03:35;6.45;;;2.75;;
49758;SDS011;70329;45.524;10.194;2023-07-13T13:08:40;9.98;;;2.92;;
49758;SDS011;70329;45.524;10.194;2023-07-13T13:11:07;6.82;;;2.67;;
49758;SDS011;70329;45.524;10.194;2023-07-13T13:13:34;8.23;;;2.88;;
49758;SDS011;70329;45.524;10.194;2023-07-13T13:16:12;10.00;;;3.05;;
49758;SDS011;70329;45.524;10.194;2023-07-13T13:18:45;4.65;;;2.40;;
49758;SDS011;70329;45.524;10.194;2023-07-13T13:21:11;5.50;;;2.50;;
49758;SDS011;70329;45.524;10.194;2023-07-13T13:23:36;8.10;;;2.95;;
49758;SDS011;70329;45.524;10.194;2023-07-13T13:26:02;6.75;;;2.75;;
49758;SDS011;70329;45.524;10.194;2023-07-13T13:28:31;7.93;;;3.35;;
49758;SDS011;70329;45.524;10.194;2023-07-13T13:30:57;7.80;;;3.05;;
49758;SDS011;70329;45.524;10.194;2023-07-13T13:33:23;8.52;;;4.45;;
49758;SDS011;70329;45.524;10.194;2023-07-13T13:35:48;12.90;;;4.20;;
49758;SDS011;70329;45.524;10.194;2023-07-13T13:38:15;7.75;;;4.10;;
49758;SDS011;70329;45.524;10.194;2023-07-13T13:40:44;7.57;;;3.47;;
49758;SDS011;70329;45.524;10.194;2023-07-13T13:43:23;11.93;;;3.10;;
49758;SDS011;70329;45.524;10.194;2023-07-13T13:45:55;10.15;;;3.83;;
49758;SDS011;70329;45.524;10.194;2023-07-13T13:48:29;7.47;;;3.00;;
49758;SDS011;70329;45.524;10.194;2023-07-13T13:50:58;7.03;;;3.20;;
49758;SDS011;70329;45.524;10.194;2023-07-13T13:53:24;8.93;;;3.40;;
49758;SDS011;70329;45.524;10.194;2023-07-13T13:55:50;7.03;;;3.42;;
49758;SDS011;70329;45.524;10.194;2023-07-13T13:58:17;10.10;;;4.25;;
49758;SDS011;70329;45.524;10.194;2023-07-13T14:00:46;8.93;;;3.90;;
49758;SDS011;70329;45.524;10.194;2023-07-13T14:03:20;14.02;;;3.25;;
49758;SDS011;70329;45.524;10.194;2023-07-13T14:05:47;8.95;;;3.72;;
49758;SDS011;70329;45.524;10.194;2023-07-13T14:08:18;8.98;;;3.55;;
49758;SDS011;70329;45.524;10.194;2023-07-13T14:10:45;11.57;;;4.70;;
49758;SDS011;70329;45.524;10.194;2023-07-13T14:13:16;8.50;;;3.60;;
49758;SDS011;70329;45.524;10.194;2023-07-13T14:15:45;11.52;;;4.72;;
49758;SDS011;70329;45.524;10.194;2023-07-13T14:18:11;14.40;;;5.00;;
49758;SDS011;70329;45.524;10.194;2023-07-13T14:20:37;13.77;;;4.38;;
49758;SDS011;70329;45.524;10.194;2023-07-13T14:23:03;11.45;;;5.40;;
49758;SDS011;70329;45.524;10.194;2023-07-13T14:25:28;17.48;;;5.75;;
49758;SDS011;70329;45.524;10.194;2023-07-13T14:27:56;9.52;;;3.80;;
49758;SDS011;70329;45.524;10.194;2023-07-13T14:30:29;14.50;;;4.18;;
49758;SDS011;70329;45.524;10.194;2023-07-13T14:32:54;13.05;;;4.00;;
49758;SDS011;70329;45.524;10.194;2023-07-13T14:35:20;12.20;;;3.60;;
49758;SDS011;70329;45.524;10.194;2023-07-13T14:37:48;12.05;;;3.78;;
49758;SDS011;70329;45.524;10.194;2023-07-13T14:40:19;13.50;;;4.38;;
49758;SDS011;70329;45.524;10.194;2023-07-13T14:42:50;11.35;;;3.78;;
49758;SDS011;70329;45.524;10.194;2023-07-13T14:45:16;13.95;;;4.00;;
49758;SDS011;70329;45.524;10.194;2023-07-13T14:47:43;11.90;;;3.88;;
49758;SDS011;70329;45.524;10.194;2023-07-13T14:50:12;13.32;;;4.28;;
49758;SDS011;70329;45.524;10.194;2023-07-13T14:52:39;14.75;;;3.92;;
49758;SDS011;70329;45.524;10.194;2023-07-13T14:55:08;11.50;;;3.75;;
49758;SDS011;70329;45.524;10.194;2023-07-13T14:57:38;10.68;;;3.85;;
49758;SDS011;70329;45.524;10.194;2023-07-13T15:00:04;9.18;;;3.78;;
49758;SDS011;70329;45.524;10.194;2023-07-13T15:02:40;11.95;;;3.47;;
49758;SDS011;70329;45.524;10.194;2023-07-13T15:05:12;13.30;;;4.25;;
49758;SDS011;70329;45.524;10.194;2023-07-13T15:07:42;12.68;;;4.30;;
49758;SDS011;70329;45.524;10.194;2023-07-13T15:10:15;10.35;;;4.15;;
49758;SDS011;70329;45.524;10.194;2023-07-13T15:12:42;10.38;;;3.95;;
49758;SDS011;70329;45.524;10.194;2023-07-13T15:15:07;13.82;;;3.83;;
49758;SDS011;70329;45.524;10.194;2023-07-13T15:17:35;10.35;;;3.70;;
49758;SDS011;70329;45.524;10.194;2023-07-13T15:20:06;11.75;;;3.70;;
49758;SDS011;70329;45.524;10.194;2023-07-13T15:22:41;13.98;;;3.65;;
49758;SDS011;70329;45.524;10.194;2023-07-13T15:25:17;8.95;;;3.17;;
49758;SDS011;70329;45.524;10.194;2023-07-13T15:27:46;11.77;;;3.65;;
49758;SDS011;70329;45.524;10.194;2023-07-13T15:30:11;10.10;;;3.88;;
49758;SDS011;70329;45.524;10.194;2023-07-13T15:32:38;9.13;;;3.55;;
49758;SDS011;70329;45.524;10.194;2023-07-13T15:35:04;9.80;;;3.45;;
49758;SDS011;70329;45.524;10.194;2023-07-13T15:37:30;9.32;;;3.40;;
49758;SDS011;70329;45.524;10.194;2023-07-13T15:39:55;8.48;;;3.55;;
49758;SDS011;70329;45.524;10.194;2023-07-13T15:42:23;9.85;;;3.22;;
49758;SDS011;70329;45.524;10.194;2023-07-13T15:44:49;11.90;;;2.95;;
49758;SDS011;70329;45.524;10.194;2023-07-13T15:47:14;7.75;;;3.30;;
49758;SDS011;70329;45.524;10.194;2023-07-13T15:49:40;10.07;;;3.75;;
49758;SDS011;70329;45.524;10.194;2023-07-13T15:52:16;11.05;;;3.30;;
49758;SDS011;70329;45.524;10.194;2023-07-13T15:54:53;9.30;;;3.05;;
49758;SDS011;70329;45.524;10.194;2023-07-13T15:57:19;5.60;;;2.50;;
49758;SDS011;70329;45.524;10.194;2023-07-13T15:59:44;15.23;;;2.50;;
49758;SDS011;70329;45.524;10.194;2023-07-13T16:02:14;11.30;;;2.70;;
49758;SDS011;70329;45.524;10.194;2023-07-13T16:04:42;8.73;;;2.78;;
49758;SDS011;70329;45.524;10.194;2023-07-13T16:07:09;5.25;;;2.50;;
49758;SDS011;70329;45.524;10.194;2023-07-13T16:09:36;7.65;;;2.30;;
49758;SDS011;70329;45.524;10.194;2023-07-13T16:12:08;12.82;;;2.58;;
49758;SDS011;70329;45.524;10.194;2023-07-13T16:14:37;5.18;;;2.28;;
49758;SDS011;70329;45.524;10.194;2023-07-13T16:17:04;7.18;;;2.20;;
49758;SDS011;70329;45.524;10.194;2023-07-13T16:19:31;6.43;;;2.30;;
49758;SDS011;70329;45.524;10.194;2023-07-13T16:21:56;8.20;;;2.30;;
49758;SDS011;70329;45.524;10.194;2023-07-13T16:24:25;7.10;;;2.67;;
49758;SDS011;70329;45.524;10.194;2023-07-13T16:26:51;5.53;;;2.20;;
49758;SDS011;70329;45.524;10.194;2023-07-13T16:29:24;6.70;;;2.28;;
49758;SDS011;70329;45.524;10.194;2023-07-13T16:32:08;9.73;;;2.63;;